Time;durP1;ratioP1;P1;durP2;ratioP2;P2;SDS_P1;SDS_P2;PMS_P1;PMS_P2;Temp;Humidity;BMP_temperature;BMP_pressure;BME280_temperature;BME280_humidity;BME280_pressure;Samples;Min_cycle;Max_cycle;Signal;HPM_P1;HPM_P2
2023/08/27 00:00:07;;;;;;;13.05;10.88;;;;;;;24.75;55.11;94482.53;4160108;28;20111;-73
2023/08/27 00:02:10;;;;;;;13.35;11.60;;;;;;;24.62;55.25;94480.25;4162276;28;20507;-73
2023/08/27 00:04:12;;;;;;;13.35;11.57;;;;;;;24.44;55.64;94479.50;4150499;28;20046;-75
2023/08/27 00:06:15;;;;;;;12.70;11.18;;;;;;;24.42;55.72;94476.28;4158210;28;20050;-75
2023/08/27 00:08:17;;;;;;;13.02;10.63;;;;;;;24.45;56.04;94478.44;4155999;28;20431;-75
2023/08/27 00:10:19;;;;;;;15.02;11.10;;;;;;;24.49;55.54;94478.78;4159544;28;20134;-77
2023/08/27 00:12:21;;;;;;;13.52;10.73;;;;;;;24.52;55.50;94484.47;4161654;28;20060;-74
2023/08/27 00:14:22;;;;;;;16.42;11.70;;;;;;;24.54;55.45;94478.84;4151079;28;20088;-74
2023/08/27 00:16:24;;;;;;;14.35;11.30;;;;;;;24.55;55.41;94480.47;4158783;28;20046;-74
2023/08/27 00:18:27;;;;;;;11.52;10.18;;;;;;;24.57;55.46;94482.91;4158512;28;20052;-73
2023/08/27 00:20:33;;;;;;;15.13;10.82;;;;;;;24.57;55.55;94464.16;4163244;28;20137;-74
2023/08/27 00:22:35;;;;;;;15.77;11.57;;;;;;;24.57;55.42;94464.97;4167293;28;20061;-73
2023/08/27 00:24:38;;;;;;;13.27;10.65;;;;;;;24.55;55.28;94459.03;4163330;28;20050;-77
2023/08/27 00:26:39;;;;;;;12.17;10.97;;;;;;;24.56;55.38;94465.19;4160355;28;20081;-75
2023/08/27 00:28:41;;;;;;;13.35;10.82;;;;;;;24.54;55.20;94465.44;4156824;28;20063;-75
2023/08/27 00:30:43;;;;;;;13.25;11.15;;;;;;;24.53;55.48;94461.97;4164227;28;20093;-74
2023/08/27 00:32:45;;;;;;;15.00;11.15;;;;;;;24.51;55.43;94460.59;4160358;28;20047;-74
2023/08/27 00:34:46;;;;;;;13.88;11.43;;;;;;;24.48;55.57;94453.88;4153980;28;20432;-74
2023/08/27 00:36:48;;;;;;;15.18;10.95;;;;;;;24.48;55.22;94458.41;4164030;28;20112;-75
2023/08/27 00:38:50;;;;;;;13.65;10.77;;;;;;;24.36;55.88;94453.19;4163690;28;20080;-73
2023/08/27 00:40:51;;;;;;;12.13;10.82;;;;;;;24.29;56.06;94455.25;4152776;28;20045;-74
2023/08/27 00:42:53;;;;;;;14.07;10.95;;;;;;;24.29;55.97;94452.56;4158746;28;20464;-74
2023/08/27 00:44:55;;;;;;;12.55;10.63;;;;;;;24.26;56.09;94448.53;4161168;28;20123;-73
2023/08/27 00:46:57;;;;;;;12.27;10.25;;;;;;;24.27;56.07;94446.66;4160723;28;20049;-73
2023/08/27 00:48:59;;;;;;;15.55;11.40;;;;;;;24.25;56.32;94452.25;4162646;28;20079;-74
2023/08/27 00:51:02;;;;;;;16.35;10.32;;;;;;;24.25;56.02;94446.09;4139254;28;20061;-74
2023/08/27 00:53:05;;;;;;;13.63;11.02;;;;;;;24.25;55.83;94449.59;4153100;28;20061;-74
2023/08/27 00:55:08;;;;;;;14.53;10.67;;;;;;;24.27;55.84;94446.66;4145706;28;20556;-75
2023/08/27 00:57:09;;;;;;;13.07;11.50;;;;;;;24.26;55.71;94447.72;4152553;28;20052;-74
2023/08/27 00:59:13;;;;;;;13.90;11.02;;;;;;;24.24;55.80;94441.78;4149505;28;20050;-74
2023/08/27 01:01:16;;;;;;;11.37;10.23;;;;;;;24.21;56.18;94448.47;4159545;28;20493;-74
2023/08/27 01:03:17;;;;;;;14.25;10.77;;;;;;;24.16;56.46;94447.63;4143912;28;20183;-72
2023/08/27 01:05:20;;;;;;;12.95;10.55;;;;;;;24.12;55.93;94456.13;4150666;28;20063;-76
2023/08/27 01:07:59;;;;;;;12.07;10.73;;;;;;;24.06;56.20;94462.47;4158105;28;20053;-75
2023/08/27 01:10:27;;;;;;;15.75;10.93;;;;;;;24.05;56.41;94458.19;4151937;28;20049;-75
2023/08/27 01:12:45;;;;;;;13.55;10.60;;;;;;;24.01;56.42;94462.41;4157847;28;20440;-76
2023/08/27 01:14:48;;;;;;;14.85;10.95;;;;;;;24.00;56.40;94468.00;4157887;28;20053;-75
2023/08/27 01:16:50;;;;;;;12.97;10.93;;;;;;;23.97;56.59;94457.81;4143840;28;20053;-75
2023/08/27 01:18:54;;;;;;;14.27;10.73;;;;;;;23.94;56.78;94456.44;4155174;28;20066;-76
2023/08/27 01:20:56;;;;;;;;;;;;;;;23.96;56.45;94458.84;4154358;28;20061;-75
2023/08/27 01:22:58;;;;;;;12.32;11.07;;;;;;;23.96;56.69;94458.84;4166566;28;19921;-74
2023/08/27 01:25:00;;;;;;;13.88;11.30;;;;;;;23.94;56.81;94456.44;4160270;28;20101;-75
2023/08/27 01:27:07;;;;;;;15.23;11.00;;;;;;;23.91;56.79;94460.41;4149767;28;20054;-74
2023/08/27 01:29:44;;;;;;;15.52;11.60;;;;;;;23.90;56.97;94456.13;4152314;28;20529;-75
2023/08/27 01:32:05;;;;;;;12.43;11.15;;;;;;;23.87;57.18;94451.25;4157005;28;20053;-73
2023/08/27 01:34:09;;;;;;;14.00;11.88;;;;;;;23.87;57.00;94455.81;4155486;28;20520;-73
2023/08/27 01:36:11;;;;;;;14.30;10.55;;;;;;;23.85;56.81;94455.25;4156977;28;20061;-74
2023/08/27 01:38:13;;;;;;;16.27;11.43;;;;;;;23.80;57.01;94457.84;4159117;28;20049;-74
2023/08/27 01:40:17;;;;;;;16.77;11.88;;;;;;;23.77;57.17;94469.03;4150581;28;20111;-73
2023/08/27 01:42:19;;;;;;;16.30;11.95;;;;;;;23.75;57.36;94471.94;4162114;28;20138;-75
2023/08/27 01:44:20;;;;;;;14.35;11.77;;;;;;;23.70;57.64;94470.00;4166232;28;20068;-75
2023/08/27 01:49:48;;;;;;;16.52;11.52;;;;;;;23.68;57.29;94465.94;4179686;28;20479;-75
2023/08/27 01:51:51;;;;;;;14.20;11.90;;;;;;;23.46;58.21;94463.22;4177407;28;20207;-75
2023/08/27 01:53:52;;;;;;;13.38;11.85;;;;;;;23.24;58.59;94469.31;4161878;28;20053;-73
2023/08/27 01:55:54;;;;;;;13.80;12.27;;;;;;;23.15;58.99;94468.13;4160414;28;20426;-74
2023/08/27 01:57:55;;;;;;;17.55;11.63;;;;;;;23.17;59.15;94466.00;4154255;28;20053;-72
2023/08/27 01:59:57;;;;;;;15.32;11.10;;;;;;;23.24;58.58;94461.31;4167758;28;20067;-73
2023/08/27 02:01:59;;;;;;;18.50;12.70;;;;;;;23.26;59.11;94458.41;4167480;28;20096;-74
2023/08/27 02:04:02;;;;;;;18.30;11.32;;;;;;;23.30;58.43;94457.66;4164086;28;20049;-76
2023/08/27 02:06:03;;;;;;;13.10;11.10;;;;;;;23.36;58.30;94452.38;4171040;28;20205;-75
2023/08/27 02:08:05;;;;;;;13.15;11.60;;;;;;;23.40;58.51;94458.84;4177856;28;20045;-76
2023/08/27 02:10:07;;;;;;;12.98;11.68;;;;;;;23.43;57.86;94458.38;4169963;28;20045;-75
2023/08/27 02:12:09;;;;;;;16.08;12.07;;;;;;;23.45;58.00;94453.59;4165769;28;20045;-75
2023/08/27 02:14:11;;;;;;;14.15;10.52;;;;;;;23.45;57.97;94456.28;4168279;28;20073;-76
2023/08/27 02:16:13;;;;;;;14.85;11.98;;;;;;;23.45;57.76;94450.94;4164718;28;20128;-76
2023/08/27 02:18:15;;;;;;;13.02;11.20;;;;;;;23.46;58.13;94447.19;4151595;28;20373;-76
2023/08/27 02:20:17;;;;;;;16.38;11.60;;;;;;;23.42;58.12;94448.72;4160818;28;20055;-74
2023/08/27 02:22:19;;;;;;;13.07;11.68;;;;;;;23.39;58.23;94452.72;4184724;28;20107;-75
2023/08/27 02:24:20;;;;;;;14.40;11.18;;;;;;;23.31;58.39;94450.44;4160017;28;20072;-73
2023/08/27 02:26:24;;;;;;;15.20;11.75;;;;;;;23.18;58.57;94448.91;4174134;28;20480;-75
2023/08/27 02:28:26;;;;;;;13.75;11.60;;;;;;;23.14;58.76;94445.09;4172631;28;20124;-74
2023/08/27 02:30:28;;;;;;;13.65;12.10;;;;;;;22.94;59.62;94447.44;4170393;28;20084;-74
2023/08/27 02:32:29;;;;;;;14.32;11.70;;;;;;;22.86;59.82;94444.09;4155119;28;20176;-74
2023/08/27 02:34:32;;;;;;;13.80;11.50;;;;;;;22.78;59.88;94449.84;4178876;28;20052;-75
2023/08/27 02:36:34;;;;;;;13.50;11.95;;;;;;;22.63;59.98;94454.94;4157417;28;20049;-74
2023/08/27 02:38:37;;;;;;;16.48;11.45;;;;;;;22.54;60.48;94453.69;4176482;28;20055;-74
2023/08/27 02:40:40;;;;;;;13.93;11.25;;;;;;;22.45;60.62;94450.59;4176508;28;20052;-75
2023/08/27 02:42:41;;;;;;;13.20;11.80;;;;;;;22.43;60.88;94450.00;4183553;28;20052;-75
2023/08/27 02:44:43;;;;;;;13.18;11.82;;;;;;;22.51;60.48;94459.50;4183636;28;20471;-74
2023/08/27 02:46:45;;;;;;;15.18;12.07;;;;;;;22.54;60.11;94449.13;4165196;28;20449;-75
2023/08/27 02:48:48;;;;;;;13.68;10.80;;;;;;;22.59;60.39;94457.25;4166908;28;20061;-74
2023/08/27 02:50:50;;;;;;;15.85;11.18;;;;;;;22.69;59.88;94456.63;4160513;28;20057;-75
2023/08/27 02:52:51;;;;;;;17.33;11.63;;;;;;;22.75;59.93;94449.50;4157504;28;20487;-75
2023/08/27 02:54:53;;;;;;;12.15;10.82;;;;;;;22.82;59.37;94448.31;4155747;28;20041;-74
2023/08/27 02:56:56;;;;;;;18.95;11.63;;;;;;;22.90;58.67;94447.09;4172549;28;20056;-75
2023/08/27 02:58:58;;;;;;;12.25;10.23;;;;;;;22.95;58.82;94449.03;4174720;28;20044;-75
2023/08/27 03:00:59;;;;;;;13.00;10.85;;;;;;;23.00;58.71;94454.50;4146681;28;20119;-75
2023/08/27 03:03:01;;;;;;;13.75;10.95;;;;;;;23.01;58.25;94456.13;4163430;28;20715;-76
2023/08/27 03:05:04;;;;;;;11.95;10.77;;;;;;;23.02;58.40;94455.09;4137408;28;20125;-74
2023/08/27 03:07:06;;;;;;;12.57;11.38;;;;;;;23.01;58.58;94448.09;4179554;28;20132;-75
2023/08/27 03:09:07;;;;;;;12.23;10.85;;;;;;;23.03;58.39;94456.69;4163850;28;20050;-75
2023/08/27 03:11:09;;;;;;;12.45;10.93;;;;;;;23.03;58.24;94454.03;4168961;28;20136;-75
2023/08/27 03:13:11;;;;;;;13.52;10.27;;;;;;;23.00;58.39;94449.97;4181211;28;20064;-74
2023/08/27 03:15:13;;;;;;;13.07;10.80;;;;;;;23.02;58.70;94455.09;4180359;28;20052;-75
2023/08/27 03:17:14;;;;;;;12.70;10.95;;;;;;;22.98;58.63;94452.06;4188474;28;20065;-73
2023/08/27 03:19:16;;;;;;;12.77;10.82;;;;;;;23.01;58.62;94456.91;4183213;28;20080;-73
2023/08/27 03:21:18;;;;;;;14.77;11.18;;;;;;;23.01;58.32;94456.91;4158954;28;20113;-74
2023/08/27 03:23:19;;;;;;;12.00;10.52;;;;;;;23.01;58.78;94456.13;4174871;28;20884;-73
2023/08/27 03:25:22;;;;;;;13.35;10.75;;;;;;;22.97;58.47;94454.94;4164603;28;20055;-74
2023/08/27 03:27:23;;;;;;;14.90;11.48;;;;;;;22.94;58.67;94450.91;4172242;28;20120;-75
2023/08/27 03:29:25;;;;;;;13.35;11.68;;;;;;;22.94;58.78;94458.13;4173759;28;20048;-73
2023/08/27 03:31:27;;;;;;;13.77;10.60;;;;;;;22.92;58.73;94453.00;4176712;28;20059;-79
2023/08/27 03:33:31;;;;;;;13.05;11.60;;;;;;;22.90;58.78;94461.25;4171017;28;20068;-74
2023/08/27 03:35:33;;;;;;;15.15;11.77;;;;;;;22.91;58.89;94456.75;4171049;28;20049;-76
2023/08/27 03:37:35;;;;;;;12.73;11.10;;;;;;;22.93;59.01;94459.16;4145654;28;20089;-75
2023/08/27 03:39:37;;;;;;;12.48;11.00;;;;;;;22.92;58.55;94469.03;4175265;28;20507;-75
2023/08/27 03:41:39;;;;;;;12.38;11.07;;;;;;;22.90;58.91;94455.91;4185211;28;20052;-74
2023/08/27 03:43:40;;;;;;;16.75;11.45;;;;;;;22.90;58.81;94465.78;4149173;28;20065;-75
2023/08/27 03:45:43;;;;;;;15.75;11.55;;;;;;;22.90;58.92;94466.59;4173290;28;20151;-74
2023/08/27 03:47:44;;;;;;;15.07;11.98;;;;;;;22.88;58.76;94466.03;4153579;28;20092;-75
2023/08/27 03:49:46;;;;;;;17.55;11.48;;;;;;;22.78;59.16;94473.88;4174955;28;20053;-73
2023/08/27 03:51:48;;;;;;;14.52;11.60;;;;;;;22.67;59.29;94469.41;4165760;28;20055;-74
2023/08/27 03:53:49;;;;;;;14.23;12.00;;;;;;;22.62;59.71;94471.97;4148766;28;20081;-74
2023/08/27 03:55:53;;;;;;;12.27;11.07;;;;;;;22.52;59.79;94474.47;4176012;28;20377;-74
2023/08/27 03:57:55;;;;;;;13.00;11.70;;;;;;;22.32;60.32;94475.69;4166765;28;20069;-75
2023/08/27 03:59:57;;;;;;;14.43;12.00;;;;;;;22.23;60.46;94471.78;4164011;28;20086;-76
2023/08/27 04:01:59;;;;;;;14.50;12.15;;;;;;;22.22;60.74;94478.13;4172331;28;20400;-74
2023/08/27 04:04:01;;;;;;;13.82;11.93;;;;;;;22.03;61.27;94477.50;4179118;28;20440;-76
2023/08/27 04:06:06;;;;;;;15.10;12.57;;;;;;;21.78;62.09;94480.44;4151941;28;20382;-74
2023/08/27 04:08:08;;;;;;;14.05;12.65;;;;;;;21.72;62.45;94486.72;4162042;28;20111;-76
2023/08/27 04:10:10;;;;;;;14.05;12.55;;;;;;;21.45;63.31;94487.19;4178296;28;20136;-77
2023/08/27 04:12:12;;;;;;;16.65;12.77;;;;;;;21.30;63.53;94484.16;4161553;28;20136;-73
2023/08/27 04:14:13;;;;;;;21.20;12.45;;;;;;;21.40;63.69;94487.84;4178378;28;20060;-75
2023/08/27 04:16:15;;;;;;;16.00;12.50;;;;;;;21.41;63.45;94489.50;4190145;28;20052;-74
2023/08/27 04:18:17;;;;;;;13.73;12.32;;;;;;;21.45;62.98;94482.66;4155488;28;20049;-74
2023/08/27 04:20:19;;;;;;;18.88;13.23;;;;;;;21.56;63.30;94486.38;4171903;28;20396;-74
2023/08/27 04:22:20;;;;;;;13.30;11.95;;;;;;;21.77;62.60;94492.13;4175469;28;20132;-74
2023/08/27 04:24:22;;;;;;;19.13;12.98;;;;;;;21.94;62.22;94490.41;4150484;28;20449;-77
2023/08/27 04:26:24;;;;;;;17.25;13.52;;;;;;;21.97;61.55;94495.25;4158906;28;20064;-76
2023/08/27 04:28:26;;;;;;;14.23;12.38;;;;;;;22.08;61.70;94494.41;4165898;28;20049;-75
2023/08/27 04:30:27;;;;;;;16.15;11.85;;;;;;;22.20;61.14;94494.41;4155342;28;20050;-76
2023/08/27 04:32:29;;;;;;;15.40;12.65;;;;;;;22.35;60.55;94493.09;4172343;28;20061;-74
2023/08/27 04:34:31;;;;;;;14.93;12.00;;;;;;;22.44;60.01;94484.47;4162208;28;20064;-72
2023/08/27 04:36:33;;;;;;;12.50;11.25;;;;;;;22.57;59.60;94483.38;4163101;28;20041;-74
2023/08/27 04:38:34;;;;;;;18.27;12.02;;;;;;;22.69;59.18;94481.47;4181059;28;20048;-75
2023/08/27 04:40:36;;;;;;;14.43;11.18;;;;;;;22.72;58.89;94490.88;4177248;28;20057;-74
2023/08/27 04:42:38;;;;;;;15.50;11.73;;;;;;;22.80;58.97;94486.97;4153863;28;20371;-74
2023/08/27 04:44:40;;;;;;;13.45;11.65;;;;;;;22.89;58.91;94477.53;4180028;28;20144;-75
2023/08/27 04:46:41;;;;;;;15.82;11.40;;;;;;;22.97;58.70;94485.13;4174607;28;20069;-75
2023/08/27 04:48:43;;;;;;;15.70;11.05;;;;;;;23.07;58.34;94485.34;4177490;28;20056;-75
2023/08/27 04:50:48;;;;;;;14.70;11.95;;;;;;;23.15;57.79;94478.81;4177290;28;20437;-75
2023/08/27 04:52:50;;;;;;;13.85;11.23;;;;;;;23.22;57.63;94489.34;4175535;28;20053;-75
2023/08/27 04:54:52;;;;;;;16.17;12.02;;;;;;;23.27;57.46;94486.72;4183929;28;20038;-74
2023/08/27 04:56:54;;;;;;;16.58;11.82;;;;;;;23.37;57.25;94491.44;4183377;28;20103;-75
2023/08/27 04:58:55;;;;;;;12.52;10.85;;;;;;;23.41;57.33;94493.38;4181146;28;20071;-74
2023/08/27 05:00:57;;;;;;;13.07;11.38;;;;;;;23.44;56.89;94492.88;4175712;28;20424;-76
2023/08/27 05:03:01;;;;;;;15.07;11.25;;;;;;;23.42;56.85;94494.97;4168844;28;20061;-76
2023/08/27 05:05:03;;;;;;;15.43;10.88;;;;;;;23.44;57.22;94500.09;4182223;28;20049;-74
2023/08/27 05:07:05;;;;;;;18.42;11.18;;;;;;;23.50;56.90;94507.13;4170775;28;20111;-78
2023/08/27 05:09:06;;;;;;;16.02;11.32;;;;;;;23.56;56.68;94506.16;4158654;28;20407;-76
2023/08/27 05:11:09;;;;;;;16.58;11.95;;;;;;;23.62;56.45;94497.16;4168414;28;20491;-76
2023/08/27 05:13:10;;;;;;;12.70;11.43;;;;;;;23.70;56.30;94502.09;4174473;28;20533;-77
2023/08/27 05:15:12;;;;;;;13.90;11.02;;;;;;;23.78;56.32;94500.09;4174223;28;20497;-74
2023/08/27 05:17:14;;;;;;;15.15;11.85;;;;;;;23.85;55.81;94498.84;4171435;28;20156;-75
2023/08/27 05:19:16;;;;;;;14.32;12.18;;;;;;;23.93;55.46;94500.28;4160115;28;20089;-74
2023/08/27 05:21:17;;;;;;;16.13;11.73;;;;;;;24.02;55.59;94498.00;4156252;28;20439;-76
2023/08/27 05:23:22;;;;;;;15.75;11.80;;;;;;;24.05;55.33;94492.97;4170308;28;20048;-75
2023/08/27 05:25:27;;;;;;;15.57;11.63;;;;;;;24.10;54.85;94501.06;4150714;28;20046;-74
2023/08/27 05:27:28;;;;;;;17.20;11.18;;;;;;;24.16;55.08;94501.94;4168597;28;20124;-76
2023/08/27 05:29:30;;;;;;;15.27;11.60;;;;;;;24.25;54.87;94496.97;4174932;28;20445;-75
2023/08/27 05:31:32;;;;;;;13.40;10.98;;;;;;;24.30;54.65;94503.16;4177580;28;20053;-77
2023/08/27 05:33:33;;;;;;;18.33;11.73;;;;;;;24.29;54.36;94504.25;4170272;28;20065;-73
2023/08/27 05:35:35;;;;;;;13.93;11.02;;;;;;;23.90;55.44;94506.97;4171810;28;20173;-77
2023/08/27 05:37:37;;;;;;;13.82;10.30;;;;;;;23.81;55.37;94515.63;4153512;28;20156;-77
2023/08/27 05:39:39;;;;;;;15.45;10.77;;;;;;;23.71;55.70;94506.38;4170377;28;20135;-76
2023/08/27 05:41:41;;;;;;;12.75;9.82;;;;;;;23.68;55.82;94514.91;4171620;28;20557;-76
2023/08/27 05:43:43;;;;;;;16.63;10.70;;;;;;;23.63;55.76;94512.16;4175102;28;20049;-78
2023/08/27 05:45:45;;;;;;;14.38;10.88;;;;;;;23.43;56.15;94509.97;4160596;28;20500;-76
2023/08/27 05:47:46;;;;;;;15.07;10.25;;;;;;;23.49;56.80;94509.00;4172251;28;20057;-76
2023/08/27 05:49:48;;;;;;;14.05;9.68;;;;;;;23.48;56.35;94504.69;4175958;28;20151;-78
2023/08/27 05:51:50;;;;;;;12.95;10.45;;;;;;;23.71;56.04;94502.91;4168997;28;20059;-76
2023/08/27 05:53:52;;;;;;;14.13;10.40;;;;;;;23.85;55.28;94508.75;4175223;28;20057;-77
2023/08/27 05:55:53;;;;;;;13.20;9.82;;;;;;;23.94;55.07;94499.25;4152183;28;20045;-76
2023/08/27 05:57:55;;;;;;;11.13;9.88;;;;;;;24.03;54.78;94496.97;4171834;28;20111;-77
2023/08/27 05:59:57;;;;;;;12.95;10.50;;;;;;;24.13;54.69;94499.75;4157038;28;20053;-77
2023/08/27 06:01:59;;;;;;;14.30;9.43;;;;;;;24.24;53.90;94492.66;4164164;28;20305;-77
2023/08/27 06:04:04;;;;;;;14.23;10.07;;;;;;;24.33;54.05;94493.84;4174576;28;20054;-76
2023/08/27 06:06:05;;;;;;;13.60;9.32;;;;;;;24.43;53.55;94493.16;4165978;28;20330;-77
2023/08/27 06:08:07;;;;;;;14.88;10.02;;;;;;;24.56;53.53;94489.31;4158489;28;20404;-76
2023/08/27 06:10:10;;;;;;;19.20;10.27;;;;;;;24.59;53.02;94488.81;4171065;28;20057;-76
2023/08/27 06:12:12;;;;;;;15.70;10.27;;;;;;;24.46;53.46;94493.47;4178115;28;20124;-77
2023/08/27 06:14:14;;;;;;;13.77;10.50;;;;;;;24.55;53.63;94495.72;4159161;28;20053;-76
2023/08/27 06:16:16;;;;;;;13.43;10.48;;;;;;;24.33;53.90;94480.47;4150019;28;20041;-76
2023/08/27 06:18:17;;;;;;;14.55;10.52;;;;;;;24.47;53.86;94484.34;4175089;28;20048;-76
2023/08/27 06:20:20;;;;;;;16.98;10.90;;;;;;;24.46;53.77;94485.44;4179191;28;20435;-76
2023/08/27 06:22:21;;;;;;;16.42;10.35;;;;;;;24.51;53.62;94476.66;4178270;28;20056;-76
2023/08/27 06:24:23;;;;;;;11.48;10.15;;;;;;;24.58;53.32;94479.16;4178761;28;20128;-75
2023/08/27 06:26:26;;;;;;;13.43;10.35;;;;;;;24.56;53.11;94475.91;4174963;28;20079;-76
2023/08/27 06:28:29;;;;;;;15.10;10.32;;;;;;;24.58;53.32;94477.28;4173275;28;20075;-76
2023/08/27 06:30:31;;;;;;;18.55;10.68;;;;;;;24.61;53.24;94470.59;4159157;28;20377;-74
2023/08/27 06:32:33;;;;;;;15.15;10.88;;;;;;;24.65;52.93;94472.53;4151576;28;20046;-76
2023/08/27 06:34:34;;;;;;;12.98;9.38;;;;;;;24.79;52.50;94480.19;4172208;28;20111;-79
2023/08/27 06:36:36;;;;;;;13.20;10.00;;;;;;;24.97;52.10;94479.78;4158567;28;20067;-83
2023/08/27 06:38:38;;;;;;;13.98;10.02;;;;;;;24.92;51.91;94480.56;4142452;28;20120;-75
2023/08/27 06:40:40;;;;;;;14.35;9.55;;;;;;;24.96;52.02;94480.06;4173205;28;20080;-74
2023/08/27 06:42:42;;;;;;;9.68;8.52;;;;;;;24.98;51.94;94476.06;4172853;28;20052;-77
2023/08/27 06:44:43;;;;;;;13.13;8.50;;;;;;;24.98;51.93;94469.91;4144142;28;20505;-77
2023/08/27 06:46:45;;;;;;;14.50;7.97;;;;;;;24.98;51.59;94470.72;4170257;28;20045;-75
2023/08/27 06:48:50;;;;;;;12.00;7.88;;;;;;;24.89;51.39;94475.72;4176195;28;20121;-74
2023/08/27 06:50:54;;;;;;;12.05;7.55;;;;;;;24.99;51.43;94479.53;4175964;28;20128;-81
2023/08/27 06:52:56;;;;;;;12.38;7.45;;;;;;;25.09;51.17;94483.13;4160709;28;20060;-79
2023/08/27 06:54:59;;;;;;;12.85;7.57;;;;;;;25.06;51.05;94480.13;4176878;28;20507;-75
2023/08/27 06:57:04;;;;;;;10.35;6.85;;;;;;;25.11;50.73;94472.97;4181145;28;20067;-77
2023/08/27 06:59:06;;;;;;;17.63;7.70;;;;;;;25.11;51.05;94482.88;4161035;28;20044;-73
2023/08/27 07:01:08;;;;;;;9.82;6.85;;;;;;;25.27;50.99;94481.94;4175320;28;20095;-72
2023/08/27 07:03:10;;;;;;;11.93;7.65;;;;;;;25.31;50.47;94464.28;4182384;28;20072;-75
2023/08/27 07:05:12;;;;;;;13.93;7.07;;;;;;;25.37;50.42;94467.84;4172342;28;20126;-74
2023/08/27 07:07:14;;;;;;;11.50;7.53;;;;;;;25.44;50.14;94471.09;4169054;28;20254;-75
2023/08/27 07:09:16;;;;;;;12.88;7.68;;;;;;;25.43;50.02;94480.22;4171079;28;20096;-87
2023/08/27 07:11:18;;;;;;;9.77;7.38;;;;;;;25.27;50.29;94473.91;4143590;28;20450;-76
2023/08/27 07:13:21;;;;;;;12.90;7.50;;;;;;;25.54;50.04;94481.91;4158029;28;20456;-75
2023/08/27 07:15:23;;;;;;;12.23;7.65;;;;;;;25.68;48.73;94479.59;4177129;28;20131;-75
2023/08/27 07:17:25;;;;;;;9.40;7.43;;;;;;;25.75;49.17;94485.53;4180727;28;20519;-78
2023/08/27 07:19:27;;;;;;;15.60;7.13;;;;;;;25.78;48.96;94486.06;4157232;28;20049;-76
2023/08/27 07:21:32;;;;;;;10.48;6.72;;;;;;;25.90;48.48;94487.53;4176702;28;20049;-76
2023/08/27 07:23:35;;;;;;;9.77;7.18;;;;;;;25.93;48.51;94488.88;4169462;28;20353;-77
2023/08/27 07:25:38;;;;;;;16.23;10.13;;;;;;;25.91;48.85;94491.00;4171815;28;20077;-75
2023/08/27 07:27:40;;;;;;;8.85;7.50;;;;;;;26.04;47.97;94485.16;4177552;28;20087;-76
2023/08/27 07:29:42;;;;;;;11.40;6.95;;;;;;;26.08;47.74;94493.50;4154377;28;20046;-74
2023/08/27 07:31:45;;;;;;;10.20;6.63;;;;;;;26.03;47.93;94494.31;4167041;28;20052;-74
2023/08/27 07:33:47;;;;;;;8.88;6.45;;;;;;;26.07;47.98;94492.72;4174439;28;20049;-80
2023/08/27 07:35:49;;;;;;;8.80;6.85;;;;;;;26.20;47.51;94498.66;4165700;28;20623;-74
2023/08/27 07:37:50;;;;;;;10.50;7.30;;;;;;;26.17;47.49;94493.81;4169032;28;20483;-74
2023/08/27 07:39:52;;;;;;;11.15;6.68;;;;;;;26.22;47.54;94493.84;4171516;28;20122;-76
2023/08/27 07:41:54;;;;;;;9.55;7.05;;;;;;;26.40;47.17;94495.28;4184560;28;20454;-74
2023/08/27 07:43:55;;;;;;;12.07;6.88;;;;;;;26.55;46.95;94482.69;4174950;28;20117;-75
2023/08/27 07:45:58;;;;;;;11.20;7.00;;;;;;;26.77;46.47;94479.81;4176622;28;20049;-76
2023/08/27 07:48:00;;;;;;;12.48;7.32;;;;;;;27.01;46.01;94479.31;4169201;28;20049;-72
2023/08/27 07:50:03;;;;;;;8.40;7.40;;;;;;;27.20;45.35;94478.81;4181739;28;20099;-73
2023/08/27 07:52:05;;;;;;;9.27;7.50;;;;;;;27.37;44.60;94477.47;4182827;28;20760;-73
2023/08/27 07:54:07;;;;;;;11.85;7.57;;;;;;;27.50;44.77;94478.81;4163593;28;20445;-74
2023/08/27 07:56:09;;;;;;;9.82;7.15;;;;;;;27.41;44.86;94479.63;4170658;28;20346;-76
2023/08/27 07:58:11;;;;;;;12.73;6.95;;;;;;;27.44;44.51;94468.31;4169083;28;20045;-78
2023/08/27 08:00:14;;;;;;;15.95;7.03;;;;;;;27.58;45.16;94472.09;4152700;28;20259;-75
2023/08/27 08:02:16;;;;;;;14.50;7.88;;;;;;;27.75;44.64;94469.09;4174497;28;20057;-73
2023/08/27 08:04:18;;;;;;;11.52;7.03;;;;;;;27.87;44.69;94461.56;4166447;28;20365;-78
2023/08/27 08:06:19;;;;;;;8.77;6.95;;;;;;;28.04;44.24;94463.94;4159875;28;20045;-78
2023/08/27 08:08:22;;;;;;;10.50;7.57;;;;;;;28.11;44.15;94464.44;4179655;28;20517;-74
2023/08/27 08:10:23;;;;;;;11.85;8.07;;;;;;;28.01;44.12;94456.41;4172307;28;20138;-77
2023/08/27 08:12:25;;;;;;;10.77;7.03;;;;;;;28.01;44.29;94458.28;4154713;28;20351;-76
2023/08/27 08:14:27;;;;;;;10.23;7.07;;;;;;;28.18;44.01;94453.41;4178470;28;20486;-76
2023/08/27 08:16:29;;;;;;;9.73;6.68;;;;;;;28.36;43.57;94451.97;4177775;28;20041;-76
2023/08/27 08:18:30;;;;;;;10.77;6.93;;;;;;;28.36;43.27;94447.38;4174331;28;20103;-75
2023/08/27 08:20:32;;;;;;;8.07;6.47;;;;;;;28.43;42.68;94444.38;4178539;28;20126;-76
2023/08/27 08:22:34;;;;;;;9.60;7.28;;;;;;;28.42;42.46;94444.69;4180433;28;20063;-75
2023/08/27 08:24:36;;;;;;;11.13;7.40;;;;;;;28.48;42.22;94441.69;4179675;28;20052;-76
2023/08/27 08:26:38;;;;;;;10.70;6.53;;;;;;;28.55;41.97;94438.69;4151927;28;20176;-76
2023/08/27 08:28:39;;;;;;;11.80;6.70;;;;;;;28.65;41.83;94438.63;4148926;28;20053;-76
2023/08/27 08:30:48;;;;;;;8.90;6.63;;;;;;;28.83;41.61;94439.06;4163977;28;20156;-75
2023/08/27 08:32:51;;;;;;;10.70;6.47;;;;;;;28.99;40.56;94432.47;4163863;28;20053;-76
2023/08/27 08:34:54;;;;;;;9.18;6.18;;;;;;;29.07;40.44;94436.47;4164853;28;20430;-77
2023/08/27 08:36:56;;;;;;;10.67;6.87;;;;;;;29.11;40.90;94430.25;4163732;28;20042;-75
2023/08/27 08:38:58;;;;;;;9.40;6.28;;;;;;;29.20;40.34;94425.84;4164254;28;20053;-76
2023/08/27 08:41:02;;;;;;;9.07;6.15;;;;;;;29.16;40.02;94424.00;4173889;28;20480;-77
2023/08/27 08:43:04;;;;;;;6.28;5.60;;;;;;;29.03;39.65;94416.53;4160777;28;20057;-75
2023/08/27 08:45:13;;;;;;;14.30;6.18;;;;;;;29.03;39.88;94424.63;4144527;28;20041;-76
2023/08/27 08:47:18;;;;;;;8.50;6.03;;;;;;;29.16;39.94;94419.41;4160193;28;20297;-76
2023/08/27 08:49:22;;;;;;;9.10;6.15;;;;;;;29.35;39.73;94421.44;4162200;28;20057;-76
2023/08/27 08:51:28;;;;;;;11.32;5.88;;;;;;;29.46;38.90;94420.25;4178225;28;20051;-75
2023/08/27 08:53:31;;;;;;;8.27;5.68;;;;;;;29.56;38.59;94409.34;4161849;28;20128;-76
2023/08/27 08:55:35;;;;;;;8.75;5.80;;;;;;;29.65;37.97;94409.53;4190001;28;20074;-76
2023/08/27 08:57:47;;;;;;;8.88;5.53;;;;;;;29.65;38.91;94403.34;4179608;28;20044;-76
2023/08/27 08:59:50;;;;;;;8.60;6.05;;;;;;;29.59;39.01;94413.38;4158668;28;20062;-76
2023/08/27 09:01:53;;;;;;;9.05;5.85;;;;;;;29.58;39.07;94409.06;4158487;28;20469;-74
2023/08/27 09:03:56;;;;;;;10.13;6.35;;;;;;;29.77;38.75;94403.75;4174968;28;20048;-77
2023/08/27 09:05:58;;;;;;;10.25;6.45;;;;;;;29.88;38.71;94407.13;4163875;28;20069;-74
2023/08/27 09:08:04;;;;;;;9.75;6.57;;;;;;;29.99;38.32;94405.94;4199976;28;20055;-75
2023/08/27 09:10:08;;;;;;;8.43;6.15;;;;;;;30.02;38.02;94397.25;4180719;28;20064;-75
2023/08/27 09:12:10;;;;;;;7.13;6.05;;;;;;;30.00;38.26;94407.53;4175359;28;20057;-75
2023/08/27 09:14:13;;;;;;;12.27;6.63;;;;;;;30.06;37.91;94400.19;4175719;28;20176;-75
2023/08/27 09:16:15;;;;;;;8.43;6.40;;;;;;;30.14;37.84;94397.66;4171034;28;20053;-75
2023/08/27 09:18:17;;;;;;;8.10;5.60;;;;;;;30.15;37.73;94406.56;4170833;28;20073;-76
2023/08/27 09:20:19;;;;;;;12.20;6.03;;;;;;;30.35;37.66;94392.00;4160515;28;20054;-77
2023/08/27 09:22:21;;;;;;;9.18;6.10;;;;;;;30.55;37.33;94388.25;4179316;28;20071;-75
2023/08/27 09:24:22;;;;;;;8.75;5.53;;;;;;;30.57;36.78;94391.47;4172394;28;20500;-73
2023/08/27 09:26:24;;;;;;;8.40;5.53;;;;;;;30.43;36.83;94385.97;4178219;28;20103;-76
2023/08/27 09:28:25;;;;;;;8.95;5.70;;;;;;;30.41;36.74;94385.44;4176956;28;20045;-76
2023/08/27 09:30:30;;;;;;;8.93;5.82;;;;;;;30.65;37.03;94382.66;4167517;28;20049;-75